sensor_id;sensor_type;location;lat;lon;timestamp;P1;durP1;ratioP1;P2;durP2;ratioP2
1416;SDS011;703;51.162;13.574;2023-04-03T00:00:29;37.07;;;8.70;;
1416;SDS011;703;51.162;13.574;2023-04-03T00:02:56;35.60;;;7.50;;
1416;SDS011;703;51.162;13.574;2023-04-03T00:05:22;36.60;;;7.93;;
1416;SDS011;703;51.162;13.574;2023-04-03T00:07:48;35.50;;;7.40;;
1416;SDS011;703;51.162;13.574;2023-04-03T00:10:15;36.70;;;9.37;;
1416;SDS011;703;51.162;13.574;2023-04-03T00:12:40;36.10;;;9.07;;
1416;SDS011;703;51.162;13.574;2023-04-03T00:15:07;36.30;;;9.10;;
1416;SDS011;703;51.162;13.574;2023-04-03T00:17:33;38.10;;;9.30;;
1416;SDS011;703;51.162;13.574;2023-04-03T00:19:59;35.73;;;8.73;;
1416;SDS011;703;51.162;13.574;2023-04-03T00:22:25;36.77;;;8.77;;
1416;SDS011;703;51.162;13.574;2023-04-03T00:24:53;36.00;;;8.90;;
1416;SDS011;703;51.162;13.574;2023-04-03T00:27:19;35.80;;;7.90;;
1416;SDS011;703;51.162;13.574;2023-04-03T00:29:45;37.60;;;8.00;;
1416;SDS011;703;51.162;13.574;2023-04-03T00:32:11;35.10;;;7.90;;
1416;SDS011;703;51.162;13.574;2023-04-03T00:34:37;35.60;;;8.30;;
1416;SDS011;703;51.162;13.574;2023-04-03T00:37:03;37.30;;;10.40;;
1416;SDS011;703;51.162;13.574;2023-04-03T00:39:29;36.27;;;8.50;;
1416;SDS011;703;51.162;13.574;2023-04-03T00:41:55;36.17;;;9.30;;
1416;SDS011;703;51.162;13.574;2023-04-03T00:44:22;36.10;;;9.03;;
1416;SDS011;703;51.162;13.574;2023-04-03T00:47:11;40.23;;;9.90;;
1416;SDS011;703;51.162;13.574;2023-04-03T00:49:39;38.63;;;9.23;;
1416;SDS011;703;51.162;13.574;2023-04-03T00:52:07;38.27;;;10.83;;
1416;SDS011;703;51.162;13.574;2023-04-03T00:54:37;35.33;;;8.07;;
1416;SDS011;703;51.162;13.574;2023-04-03T00:57:03;36.67;;;8.90;;
1416;SDS011;703;51.162;13.574;2023-04-03T00:59:32;37.57;;;8.27;;
1416;SDS011;703;51.162;13.574;2023-04-03T01:02:00;36.50;;;9.63;;
1416;SDS011;703;51.162;13.574;2023-04-03T01:04:30;36.87;;;9.03;;
1416;SDS011;703;51.162;13.574;2023-04-03T01:07:00;36.10;;;8.10;;
1416;SDS011;703;51.162;13.574;2023-04-03T01:09:27;37.80;;;10.13;;
1416;SDS011;703;51.162;13.574;2023-04-03T01:11:54;35.80;;;7.77;;
1416;SDS011;703;51.162;13.574;2023-04-03T01:14:20;38.63;;;9.13;;
1416;SDS011;703;51.162;13.574;2023-04-03T01:16:55;39.67;;;8.67;;
1416;SDS011;703;51.162;13.574;2023-04-03T01:19:21;37.40;;;9.50;;
1416;SDS011;703;51.162;13.574;2023-04-03T01:21:52;36.93;;;8.17;;
1416;SDS011;703;51.162;13.574;2023-04-03T01:24:37;37.13;;;9.53;;
1416;SDS011;703;51.162;13.574;2023-04-03T01:27:04;35.87;;;8.97;;
1416;SDS011;703;51.162;13.574;2023-04-03T01:29:31;35.83;;;8.47;;
1416;SDS011;703;51.162;13.574;2023-04-03T01:31:58;36.07;;;9.10;;
1416;SDS011;703;51.162;13.574;2023-04-03T01:34:25;37.27;;;8.77;;
1416;SDS011;703;51.162;13.574;2023-04-03T01:36:51;38.20;;;9.80;;
1416;SDS011;703;51.162;13.574;2023-04-03T01:39:17;36.77;;;7.93;;
1416;SDS011;703;51.162;13.574;2023-04-03T01:41:43;38.70;;;9.50;;
1416;SDS011;703;51.162;13.574;2023-04-03T01:44:09;40.50;;;9.70;;
1416;SDS011;703;51.162;13.574;2023-04-03T01:46:35;37.00;;;9.47;;
1416;SDS011;703;51.162;13.574;2023-04-03T01:49:02;37.70;;;9.07;;
1416;SDS011;703;51.162;13.574;2023-04-03T01:51:28;36.70;;;9.20;;
1416;SDS011;703;51.162;13.574;2023-04-03T01:53:54;36.23;;;8.50;;
1416;SDS011;703;51.162;13.574;2023-04-03T01:56:20;37.67;;;9.83;;
1416;SDS011;703;51.162;13.574;2023-04-03T01:58:46;38.47;;;10.10;;
1416;SDS011;703;51.162;13.574;2023-04-03T02:01:12;37.40;;;9.13;;
1416;SDS011;703;51.162;13.574;2023-04-03T02:03:38;36.70;;;9.63;;
1416;SDS011;703;51.162;13.574;2023-04-03T02:06:04;40.03;;;10.13;;
1416;SDS011;703;51.162;13.574;2023-04-03T02:08:30;37.40;;;9.53;;
1416;SDS011;703;51.162;13.574;2023-04-03T02:10:56;38.47;;;10.00;;
1416;SDS011;703;51.162;13.574;2023-04-03T02:13:22;37.63;;;10.17;;
1416;SDS011;703;51.162;13.574;2023-04-03T02:15:48;36.90;;;10.00;;
1416;SDS011;703;51.162;13.574;2023-04-03T02:18:14;36.63;;;9.13;;
1416;SDS011;703;51.162;13.574;2023-04-03T02:20:40;39.63;;;10.53;;
1416;SDS011;703;51.162;13.574;2023-04-03T02:23:06;39.73;;;10.47;;
1416;SDS011;703;51.162;13.574;2023-04-03T02:25:32;36.17;;;9.30;;
1416;SDS011;703;51.162;13.574;2023-04-03T02:27:57;36.60;;;9.90;;
1416;SDS011;703;51.162;13.574;2023-04-03T02:30:23;38.47;;;10.73;;
1416;SDS011;703;51.162;13.574;2023-04-03T02:32:50;36.50;;;9.90;;
1416;SDS011;703;51.162;13.574;2023-04-03T02:35:16;40.03;;;9.97;;
1416;SDS011;703;51.162;13.574;2023-04-03T02:37:42;36.53;;;8.80;;
1416;SDS011;703;51.162;13.574;2023-04-03T02:40:07;36.63;;;9.60;;
1416;SDS011;703;51.162;13.574;2023-04-03T02:42:33;42.17;;;10.10;;
1416;SDS011;703;51.162;13.574;2023-04-03T02:45:00;37.20;;;10.30;;
1416;SDS011;703;51.162;13.574;2023-04-03T02:47:26;37.27;;;8.97;;
1416;SDS011;703;51.162;13.574;2023-04-03T02:49:52;37.67;;;10.20;;
1416;SDS011;703;51.162;13.574;2023-04-03T02:52:18;36.37;;;9.57;;
1416;SDS011;703;51.162;13.574;2023-04-03T02:54:44;38.23;;;10.47;;
1416;SDS011;703;51.162;13.574;2023-04-03T02:57:10;38.23;;;8.20;;
1416;SDS011;703;51.162;13.574;2023-04-03T02:59:36;37.60;;;9.70;;
1416;SDS011;703;51.162;13.574;2023-04-03T03:02:05;38.00;;;9.70;;
1416;SDS011;703;51.162;13.574;2023-04-03T03:04:31;37.73;;;9.50;;
1416;SDS011;703;51.162;13.574;2023-04-03T03:06:57;36.57;;;9.63;;
1416;SDS011;703;51.162;13.574;2023-04-03T03:09:23;37.17;;;9.80;;
1416;SDS011;703;51.162;13.574;2023-04-03T03:11:50;37.40;;;10.00;;
1416;SDS011;703;51.162;13.574;2023-04-03T03:14:16;36.43;;;9.50;;
1416;SDS011;703;51.162;13.574;2023-04-03T03:16:42;38.63;;;9.63;;
1416;SDS011;703;51.162;13.574;2023-04-03T03:19:08;39.67;;;8.57;;
1416;SDS011;703;51.162;13.574;2023-04-03T03:21:34;38.03;;;9.80;;
1416;SDS011;703;51.162;13.574;2023-04-03T03:23:59;41.53;;;10.30;;
1416;SDS011;703;51.162;13.574;2023-04-03T03:26:25;38.97;;;8.80;;
1416;SDS011;703;51.162;13.574;2023-04-03T03:28:51;40.90;;;10.30;;
1416;SDS011;703;51.162;13.574;2023-04-03T03:31:17;39.20;;;10.70;;
1416;SDS011;703;51.162;13.574;2023-04-03T03:33:43;37.27;;;9.77;;
1416;SDS011;703;51.162;13.574;2023-04-03T03:36:09;39.73;;;10.00;;
1416;SDS011;703;51.162;13.574;2023-04-03T03:38:35;37.20;;;9.40;;
1416;SDS011;703;51.162;13.574;2023-04-03T03:41:01;39.63;;;9.80;;
1416;SDS011;703;51.162;13.574;2023-04-03T03:43:27;40.20;;;10.33;;
1416;SDS011;703;51.162;13.574;2023-04-03T03:45:53;37.40;;;10.30;;
1416;SDS011;703;51.162;13.574;2023-04-03T03:48:20;37.80;;;10.20;;
1416;SDS011;703;51.162;13.574;2023-04-03T03:50:46;38.30;;;9.97;;
1416;SDS011;703;51.162;13.574;2023-04-03T03:53:12;42.77;;;10.20;;
1416;SDS011;703;51.162;13.574;2023-04-03T03:55:38;39.60;;;11.23;;
1416;SDS011;703;51.162;13.574;2023-04-03T03:58:04;37.60;;;10.47;;
1416;SDS011;703;51.162;13.574;2023-04-03T04:00:30;39.00;;;10.80;;
1416;SDS011;703;51.162;13.574;2023-04-03T04:02:56;39.23;;;10.90;;
1416;SDS011;703;51.162;13.574;2023-04-03T04:05:22;40.07;;;11.70;;
1416;SDS011;703;51.162;13.574;2023-04-03T04:07:48;37.80;;;10.90;;
1416;SDS011;703;51.162;13.574;2023-04-03T04:10:14;38.20;;;10.30;;
1416;SDS011;703;51.162;13.574;2023-04-03T04:12:40;39.27;;;10.43;;
1416;SDS011;703;51.162;13.574;2023-04-03T04:15:06;38.63;;;10.27;;
1416;SDS011;703;51.162;13.574;2023-04-03T04:17:32;39.47;;;9.80;;
1416;SDS011;703;51.162;13.574;2023-04-03T04:20:00;37.97;;;10.10;;
1416;SDS011;703;51.162;13.574;2023-04-03T04:22:25;37.50;;;10.30;;
1416;SDS011;703;51.162;13.574;2023-04-03T04:24:51;41.43;;;11.43;;
1416;SDS011;703;51.162;13.574;2023-04-03T04:27:17;38.70;;;10.73;;
1416;SDS011;703;51.162;13.574;2023-04-03T04:29:43;43.80;;;10.67;;
1416;SDS011;703;51.162;13.574;2023-04-03T04:32:09;39.90;;;12.23;;
1416;SDS011;703;51.162;13.574;2023-04-03T04:34:35;39.40;;;11.40;;
1416;SDS011;703;51.162;13.574;2023-04-03T04:37:01;40.87;;;10.97;;
1416;SDS011;703;51.162;13.574;2023-04-03T04:39:27;38.17;;;10.47;;
1416;SDS011;703;51.162;13.574;2023-04-03T04:41:53;39.17;;;10.30;;
1416;SDS011;703;51.162;13.574;2023-04-03T04:44:19;38.07;;;10.90;;
1416;SDS011;703;51.162;13.574;2023-04-03T04:46:45;40.23;;;10.90;;
1416;SDS011;703;51.162;13.574;2023-04-03T04:49:11;40.47;;;11.03;;
1416;SDS011;703;51.162;13.574;2023-04-03T04:51:37;38.80;;;10.83;;
1416;SDS011;703;51.162;13.574;2023-04-03T04:54:03;39.07;;;11.90;;
1416;SDS011;703;51.162;13.574;2023-04-03T04:56:29;39.67;;;11.60;;
1416;SDS011;703;51.162;13.574;2023-04-03T04:58:55;38.00;;;11.50;;
1416;SDS011;703;51.162;13.574;2023-04-03T05:01:22;41.20;;;12.90;;
1416;SDS011;703;51.162;13.574;2023-04-03T05:03:48;41.13;;;12.43;;
1416;SDS011;703;51.162;13.574;2023-04-03T05:06:14;42.37;;;13.60;;
1416;SDS011;703;51.162;13.574;2023-04-03T05:08:40;41.90;;;12.53;;
1416;SDS011;703;51.162;13.574;2023-04-03T05:11:06;38.20;;;11.90;;
1416;SDS011;703;51.162;13.574;2023-04-03T05:13:32;37.93;;;12.00;;
1416;SDS011;703;51.162;13.574;2023-04-03T05:15:58;39.40;;;11.43;;
1416;SDS011;703;51.162;13.574;2023-04-03T05:18:24;39.10;;;11.80;;
1416;SDS011;703;51.162;13.574;2023-04-03T05:20:51;37.27;;;10.23;;
1416;SDS011;703;51.162;13.574;2023-04-03T05:23:16;42.67;;;12.17;;
1416;SDS011;703;51.162;13.574;2023-04-03T05:25:42;40.90;;;12.03;;
1416;SDS011;703;51.162;13.574;2023-04-03T05:28:10;40.50;;;11.67;;
1416;SDS011;703;51.162;13.574;2023-04-03T05:30:36;38.57;;;11.40;;
1416;SDS011;703;51.162;13.574;2023-04-03T05:33:01;38.10;;;11.83;;
1416;SDS011;703;51.162;13.574;2023-04-03T05:35:27;38.90;;;11.20;;
1416;SDS011;703;51.162;13.574;2023-04-03T05:37:53;38.20;;;11.27;;
1416;SDS011;703;51.162;13.574;2023-04-03T05:40:19;39.10;;;12.03;;
1416;SDS011;703;51.162;13.574;2023-04-03T05:42:45;40.47;;;13.40;;
1416;SDS011;703;51.162;13.574;2023-04-03T05:45:11;39.00;;;12.73;;
1416;SDS011;703;51.162;13.574;2023-04-03T05:47:36;39.03;;;12.53;;
1416;SDS011;703;51.162;13.574;2023-04-03T05:50:02;39.63;;;11.83;;
1416;SDS011;703;51.162;13.574;2023-04-03T05:52:29;41.33;;;13.20;;
1416;SDS011;703;51.162;13.574;2023-04-03T05:54:57;38.30;;;12.50;;
1416;SDS011;703;51.162;13.574;2023-04-03T05:57:23;43.90;;;13.40;;
1416;SDS011;703;51.162;13.574;2023-04-03T05:59:50;40.30;;;11.80;;
1416;SDS011;703;51.162;13.574;2023-04-03T06:02:16;38.63;;;12.13;;
1416;SDS011;703;51.162;13.574;2023-04-03T06:04:43;39.97;;;12.70;;
1416;SDS011;703;51.162;13.574;2023-04-03T06:07:13;38.57;;;12.23;;
1416;SDS011;703;51.162;13.574;2023-04-03T06:09:40;38.50;;;11.93;;
1416;SDS011;703;51.162;13.574;2023-04-03T06:12:07;38.20;;;11.47;;
1416;SDS011;703;51.162;13.574;2023-04-03T06:14:32;38.90;;;11.80;;
1416;SDS011;703;51.162;13.574;2023-04-03T06:16:58;39.40;;;11.90;;
1416;SDS011;703;51.162;13.574;2023-04-03T06:19:24;41.37;;;12.73;;
1416;SDS011;703;51.162;13.574;2023-04-03T06:21:50;39.50;;;13.17;;
1416;SDS011;703;51.162;13.574;2023-04-03T06:24:16;39.83;;;11.23;;
1416;SDS011;703;51.162;13.574;2023-04-03T06:26:42;38.33;;;12.37;;
1416;SDS011;703;51.162;13.574;2023-04-03T06:29:08;40.17;;;13.80;;
1416;SDS011;703;51.162;13.574;2023-04-03T06:31:34;41.07;;;12.50;;
1416;SDS011;703;51.162;13.574;2023-04-03T06:34:01;39.67;;;11.80;;
1416;SDS011;703;51.162;13.574;2023-04-03T06:36:27;40.00;;;14.20;;
1416;SDS011;703;51.162;13.574;2023-04-03T06:38:53;40.33;;;12.43;;
1416;SDS011;703;51.162;13.574;2023-04-03T06:41:19;40.53;;;11.90;;
1416;SDS011;703;51.162;13.574;2023-04-03T06:43:46;39.43;;;11.90;;
1416;SDS011;703;51.162;13.574;2023-04-03T06:46:14;38.67;;;12.70;;
1416;SDS011;703;51.162;13.574;2023-04-03T06:48:40;37.97;;;11.80;;
1416;SDS011;703;51.162;13.574;2023-04-03T06:51:06;40.37;;;12.60;;
1416;SDS011;703;51.162;13.574;2023-04-03T06:53:33;40.37;;;12.10;;
1416;SDS011;703;51.162;13.574;2023-04-03T06:55:59;38.27;;;12.63;;
1416;SDS011;703;51.162;13.574;2023-04-03T06:58:24;37.90;;;12.10;;
1416;SDS011;703;51.162;13.574;2023-04-03T07:00:50;38.90;;;12.20;;
1416;SDS011;703;51.162;13.574;2023-04-03T07:03:16;38.77;;;13.23;;
1416;SDS011;703;51.162;13.574;2023-04-03T07:05:43;39.30;;;14.03;;
1416;SDS011;703;51.162;13.574;2023-04-03T07:08:09;40.00;;;13.10;;
1416;SDS011;703;51.162;13.574;2023-04-03T07:10:35;39.60;;;13.13;;
1416;SDS011;703;51.162;13.574;2023-04-03T07:13:03;37.87;;;12.70;;
1416;SDS011;703;51.162;13.574;2023-04-03T07:15:28;39.30;;;13.60;;
1416;SDS011;703;51.162;13.574;2023-04-03T07:17:54;39.17;;;13.23;;
1416;SDS011;703;51.162;13.574;2023-04-03T07:20:20;39.50;;;13.37;;
1416;SDS011;703;51.162;13.574;2023-04-03T07:22:46;40.67;;;11.30;;
1416;SDS011;703;51.162;13.574;2023-04-03T07:25:12;37.80;;;11.90;;
1416;SDS011;703;51.162;13.574;2023-04-03T07:27:37;38.57;;;12.90;;
1416;SDS011;703;51.162;13.574;2023-04-03T07:30:04;37.27;;;10.73;;
1416;SDS011;703;51.162;13.574;2023-04-03T07:32:31;39.83;;;13.37;;
1416;SDS011;703;51.162;13.574;2023-04-03T07:34:56;37.43;;;11.83;;
1416;SDS011;703;51.162;13.574;2023-04-03T07:37:22;38.80;;;12.93;;
1416;SDS011;703;51.162;13.574;2023-04-03T07:39:48;38.83;;;12.40;;
1416;SDS011;703;51.162;13.574;2023-04-03T07:42:14;38.07;;;13.10;;
1416;SDS011;703;51.162;13.574;2023-04-03T07:44:39;38.93;;;12.33;;
1416;SDS011;703;51.162;13.574;2023-04-03T07:47:05;37.30;;;12.17;;
1416;SDS011;703;51.162;13.574;2023-04-03T07:49:31;38.33;;;12.80;;
1416;SDS011;703;51.162;13.574;2023-04-03T07:51:57;38.10;;;13.90;;
1416;SDS011;703;51.162;13.574;2023-04-03T07:54:23;39.60;;;13.37;;
1416;SDS011;703;51.162;13.574;2023-04-03T07:56:49;42.20;;;14.20;;
1416;SDS011;703;51.162;13.574;2023-04-03T07:59:15;43.50;;;13.17;;
1416;SDS011;703;51.162;13.574;2023-04-03T08:01:40;40.23;;;12.70;;
1416;SDS011;703;51.162;13.574;2023-04-03T08:04:06;37.77;;;14.00;;
1416;SDS011;703;51.162;13.574;2023-04-03T08:06:31;39.07;;;13.27;;
1416;SDS011;703;51.162;13.574;2023-04-03T08:08:59;39.60;;;14.47;;
1416;SDS011;703;51.162;13.574;2023-04-03T08:11:25;40.53;;;14.10;;
1416;SDS011;703;51.162;13.574;2023-04-03T08:13:51;37.67;;;13.57;;
1416;SDS011;703;51.162;13.574;2023-04-03T08:16:18;46.10;;;14.90;;
1416;SDS011;703;51.162;13.574;2023-04-03T08:18:47;38.07;;;11.97;;
1416;SDS011;703;51.162;13.574;2023-04-03T08:21:13;39.03;;;12.13;;
1416;SDS011;703;51.162;13.574;2023-04-03T08:23:39;38.27;;;12.63;;
1416;SDS011;703;51.162;13.574;2023-04-03T08:26:07;40.70;;;11.77;;
1416;SDS011;703;51.162;13.574;2023-04-03T08:28:33;38.27;;;13.83;;
1416;SDS011;703;51.162;13.574;2023-04-03T08:31:02;38.63;;;12.90;;
1416;SDS011;703;51.162;13.574;2023-04-03T08:33:30;37.87;;;11.80;;
1416;SDS011;703;51.162;13.574;2023-04-03T08:35:56;37.57;;;13.27;;
1416;SDS011;703;51.162;13.574;2023-04-03T08:38:22;37.20;;;12.67;;
1416;SDS011;703;51.162;13.574;2023-04-03T08:40:47;37.60;;;12.50;;
1416;SDS011;703;51.162;13.574;2023-04-03T08:43:36;37.67;;;13.30;;
1416;SDS011;703;51.162;13.574;2023-04-03T08:46:22;37.80;;;11.50;;
1416;SDS011;703;51.162;13.574;2023-04-03T08:48:56;41.73;;;14.50;;
1416;SDS011;703;51.162;13.574;2023-04-03T08:51:24;38.10;;;13.70;;
1416;SDS011;703;51.162;13.574;2023-04-03T08:53:56;42.23;;;12.40;;
1416;SDS011;703;51.162;13.574;2023-04-03T08:56:27;39.17;;;13.30;;
1416;SDS011;703;51.162;13.574;2023-04-03T08:58:55;39.13;;;12.43;;
1416;SDS011;703;51.162;13.574;2023-04-03T09:01:44;41.23;;;15.60;;
1416;SDS011;703;51.162;13.574;2023-04-03T09:04:14;37.17;;;13.10;;
1416;SDS011;703;51.162;13.574;2023-04-03T09:06:43;39.30;;;13.10;;
1416;SDS011;703;51.162;13.574;2023-04-03T09:09:24;36.83;;;12.50;;
1416;SDS011;703;51.162;13.574;2023-04-03T09:12:10;38.73;;;14.40;;
1416;SDS011;703;51.162;13.574;2023-04-03T09:14:42;36.80;;;12.90;;
1416;SDS011;703;51.162;13.574;2023-04-03T09:22:55;38.10;;;13.17;;
1416;SDS011;703;51.162;13.574;2023-04-03T09:25:25;36.60;;;12.53;;
1416;SDS011;703;51.162;13.574;2023-04-03T09:28:01;40.60;;;14.90;;
1416;SDS011;703;51.162;13.574;2023-04-03T09:30:27;38.30;;;12.70;;
1416;SDS011;703;51.162;13.574;2023-04-03T09:32:54;43.27;;;11.83;;
1416;SDS011;703;51.162;13.574;2023-04-03T09:37:47;35.97;;;12.63;;
1416;SDS011;703;51.162;13.574;2023-04-03T09:43:19;39.33;;;14.77;;
1416;SDS011;703;51.162;13.574;2023-04-03T09:45:53;37.30;;;12.73;;
1416;SDS011;703;51.162;13.574;2023-04-03T09:48:21;37.27;;;14.27;;
1416;SDS011;703;51.162;13.574;2023-04-03T09:50:54;36.43;;;12.80;;
1416;SDS011;703;51.162;13.574;2023-04-03T09:53:35;36.10;;;13.33;;
1416;SDS011;703;51.162;13.574;2023-04-03T09:56:03;36.83;;;14.10;;
1416;SDS011;703;51.162;13.574;2023-04-03T10:01:29;35.77;;;10.53;;
1416;SDS011;703;51.162;13.574;2023-04-03T10:06:44;35.33;;;11.20;;
1416;SDS011;703;51.162;13.574;2023-04-03T10:12:01;34.00;;;11.07;;
1416;SDS011;703;51.162;13.574;2023-04-03T10:14:39;35.27;;;13.33;;
1416;SDS011;703;51.162;13.574;2023-04-03T10:17:11;36.03;;;12.43;;
1416;SDS011;703;51.162;13.574;2023-04-03T10:19:46;34.80;;;11.83;;
1416;SDS011;703;51.162;13.574;2023-04-03T10:27:55;34.60;;;10.87;;
1416;SDS011;703;51.162;13.574;2023-04-03T10:30:34;34.87;;;12.23;;
1416;SDS011;703;51.162;13.574;2023-04-03T10:38:43;35.37;;;11.90;;
1416;SDS011;703;51.162;13.574;2023-04-03T10:41:31;35.33;;;13.07;;
1416;SDS011;703;51.162;13.574;2023-04-03T10:44:20;36.40;;;13.60;;
1416;SDS011;703;51.162;13.574;2023-04-03T10:47:01;36.23;;;12.10;;
1416;SDS011;703;51.162;13.574;2023-04-03T10:55:24;35.70;;;14.03;;
1416;SDS011;703;51.162;13.574;2023-04-03T10:58:03;39.30;;;12.17;;
1416;SDS011;703;51.162;13.574;2023-04-03T11:00:39;35.27;;;13.27;;
1416;SDS011;703;51.162;13.574;2023-04-03T11:03:24;34.87;;;13.30;;
1416;SDS011;703;51.162;13.574;2023-04-03T11:05:56;39.50;;;15.93;;
1416;SDS011;703;51.162;13.574;2023-04-03T11:08:33;37.53;;;14.33;;
1416;SDS011;703;51.162;13.574;2023-04-03T11:11:09;38.17;;;14.03;;
1416;SDS011;703;51.162;13.574;2023-04-03T11:13:48;34.47;;;11.80;;
1416;SDS011;703;51.162;13.574;2023-04-03T11:16:28;39.30;;;13.30;;
1416;SDS011;703;51.162;13.574;2023-04-03T11:18:59;36.80;;;12.77;;
1416;SDS011;703;51.162;13.574;2023-04-03T11:21:47;35.63;;;12.50;;
1416;SDS011;703;51.162;13.574;2023-04-03T11:24:42;36.30;;;13.50;;
1416;SDS011;703;51.162;13.574;2023-04-03T11:27:14;35.30;;;12.30;;
1416;SDS011;703;51.162;13.574;2023-04-03T11:29:43;34.97;;;12.50;;
1416;SDS011;703;51.162;13.574;2023-04-03T11:34:59;34.87;;;12.33;;
1416;SDS011;703;51.162;13.574;2023-04-03T11:40:13;35.90;;;14.03;;
1416;SDS011;703;51.162;13.574;2023-04-03T11:42:46;35.60;;;11.53;;
1416;SDS011;703;51.162;13.574;2023-04-03T11:58:16;34.53;;;11.07;;
1416;SDS011;703;51.162;13.574;2023-04-03T12:13:38;36.10;;;12.90;;
1416;SDS011;703;51.162;13.574;2023-04-03T12:18:54;38.00;;;14.10;;
1416;SDS011;703;51.162;13.574;2023-04-03T12:24:01;34.60;;;11.50;;
1416;SDS011;703;51.162;13.574;2023-04-03T12:26:38;35.67;;;14.67;;
1416;SDS011;703;51.162;13.574;2023-04-03T12:29:13;41.00;;;13.50;;
1416;SDS011;703;51.162;13.574;2023-04-03T12:31:47;34.83;;;12.90;;
1416;SDS011;703;51.162;13.574;2023-04-03T12:37:24;37.43;;;13.70;;
1416;SDS011;703;51.162;13.574;2023-04-03T12:40:28;36.20;;;13.70;;
1416;SDS011;703;51.162;13.574;2023-04-03T12:48:38;38.93;;;18.00;;
1416;SDS011;703;51.162;13.574;2023-04-03T12:51:17;35.00;;;13.80;;
1416;SDS011;703;51.162;13.574;2023-04-03T12:53:54;33.93;;;10.70;;
1416;SDS011;703;51.162;13.574;2023-04-03T12:58:54;35.17;;;12.50;;
1416;SDS011;703;51.162;13.574;2023-04-03T13:01:37;37.57;;;12.40;;
1416;SDS011;703;51.162;13.574;2023-04-03T13:04:02;36.27;;;14.30;;
1416;SDS011;703;51.162;13.574;2023-04-03T13:06:34;34.90;;;12.07;;
1416;SDS011;703;51.162;13.574;2023-04-03T13:09:06;37.07;;;13.03;;
1416;SDS011;703;51.162;13.574;2023-04-03T13:11:42;35.07;;;11.50;;
1416;SDS011;703;51.162;13.574;2023-04-03T13:14:28;35.00;;;12.60;;
1416;SDS011;703;51.162;13.574;2023-04-03T13:16:55;33.90;;;11.93;;
1416;SDS011;703;51.162;13.574;2023-04-03T13:19:22;35.90;;;13.83;;
1416;SDS011;703;51.162;13.574;2023-04-03T13:21:54;34.33;;;12.47;;
1416;SDS011;703;51.162;13.574;2023-04-03T13:24:25;38.80;;;14.50;;
1416;SDS011;703;51.162;13.574;2023-04-03T13:26:51;35.00;;;12.60;;
1416;SDS011;703;51.162;13.574;2023-04-03T13:29:25;35.60;;;13.93;;
1416;SDS011;703;51.162;13.574;2023-04-03T13:32:00;35.80;;;13.17;;
1416;SDS011;703;51.162;13.574;2023-04-03T13:34:28;36.73;;;14.53;;
1416;SDS011;703;51.162;13.574;2023-04-03T13:37:00;34.87;;;13.10;;
1416;SDS011;703;51.162;13.574;2023-04-03T13:39:37;36.13;;;13.73;;
1416;SDS011;703;51.162;13.574;2023-04-03T13:42:23;35.30;;;13.90;;
1416;SDS011;703;51.162;13.574;2023-04-03T13:47:46;34.07;;;13.13;;
1416;SDS011;703;51.162;13.574;2023-04-03T13:52:53;36.37;;;14.13;;
1416;SDS011;703;51.162;13.574;2023-04-03T13:57:54;34.90;;;13.43;;
1416;SDS011;703;51.162;13.574;2023-04-03T14:03:30;36.40;;;17.30;;
1416;SDS011;703;51.162;13.574;2023-04-03T14:05:58;37.30;;;14.10;;
1416;SDS011;703;51.162;13.574;2023-04-03T14:08:26;36.13;;;14.70;;
1416;SDS011;703;51.162;13.574;2023-04-03T14:10:52;35.27;;;12.90;;
1416;SDS011;703;51.162;13.574;2023-04-03T14:13:18;35.27;;;12.13;;
1416;SDS011;703;51.162;13.574;2023-04-03T14:15:45;34.57;;;13.20;;
1416;SDS011;703;51.162;13.574;2023-04-03T14:18:13;34.87;;;13.07;;
1416;SDS011;703;51.162;13.574;2023-04-03T14:20:41;36.80;;;15.97;;
1416;SDS011;703;51.162;13.574;2023-04-03T14:23:07;36.83;;;15.23;;
1416;SDS011;703;51.162;13.574;2023-04-03T14:25:33;36.70;;;15.13;;
1416;SDS011;703;51.162;13.574;2023-04-03T14:27:59;36.90;;;13.60;;
1416;SDS011;703;51.162;13.574;2023-04-03T14:30:32;36.40;;;15.13;;
1416;SDS011;703;51.162;13.574;2023-04-03T14:32:59;34.97;;;13.53;;
1416;SDS011;703;51.162;13.574;2023-04-03T14:35:26;37.17;;;17.67;;
1416;SDS011;703;51.162;13.574;2023-04-03T14:37:52;36.40;;;12.50;;
1416;SDS011;703;51.162;13.574;2023-04-03T14:40:20;36.30;;;14.90;;
1416;SDS011;703;51.162;13.574;2023-04-03T14:42:48;35.27;;;13.97;;
1416;SDS011;703;51.162;13.574;2023-04-03T14:45:14;36.93;;;18.30;;
1416;SDS011;703;51.162;13.574;2023-04-03T14:47:43;35.50;;;13.57;;
1416;SDS011;703;51.162;13.574;2023-04-03T14:50:14;34.50;;;14.13;;
1416;SDS011;703;51.162;13.574;2023-04-03T14:52:42;35.60;;;12.80;;
1416;SDS011;703;51.162;13.574;2023-04-03T14:55:19;35.13;;;12.10;;
1416;SDS011;703;51.162;13.574;2023-04-03T14:57:46;35.77;;;13.10;;
1416;SDS011;703;51.162;13.574;2023-04-03T15:00:15;36.07;;;13.30;;
1416;SDS011;703;51.162;13.574;2023-04-03T15:02:43;34.40;;;13.03;;
1416;SDS011;703;51.162;13.574;2023-04-03T15:05:09;35.10;;;13.83;;
1416;SDS011;703;51.162;13.574;2023-04-03T15:07:36;36.57;;;13.93;;
1416;SDS011;703;51.162;13.574;2023-04-03T15:12:48;37.67;;;13.10;;
1416;SDS011;703;51.162;13.574;2023-04-03T15:15:15;34.97;;;14.10;;
1416;SDS011;703;51.162;13.574;2023-04-03T15:17:42;34.50;;;14.00;;
1416;SDS011;703;51.162;13.574;2023-04-03T15:20:13;34.47;;;12.93;;
1416;SDS011;703;51.162;13.574;2023-04-03T15:22:41;35.17;;;13.93;;
1416;SDS011;703;51.162;13.574;2023-04-03T15:25:06;34.97;;;13.43;;
1416;SDS011;703;51.162;13.574;2023-04-03T15:27:33;36.77;;;14.00;;
1416;SDS011;703;51.162;13.574;2023-04-03T15:29:59;35.03;;;12.57;;
1416;SDS011;703;51.162;13.574;2023-04-03T15:32:24;34.60;;;12.40;;
1416;SDS011;703;51.162;13.574;2023-04-03T15:34:50;38.13;;;13.50;;
1416;SDS011;703;51.162;13.574;2023-04-03T15:37:15;35.00;;;12.63;;
1416;SDS011;703;51.162;13.574;2023-04-03T15:39:41;35.13;;;13.20;;
1416;SDS011;703;51.162;13.574;2023-04-03T15:42:06;34.57;;;12.33;;
1416;SDS011;703;51.162;13.574;2023-04-03T15:44:35;36.67;;;13.10;;
1416;SDS011;703;51.162;13.574;2023-04-03T15:47:00;35.83;;;14.30;;
1416;SDS011;703;51.162;13.574;2023-04-03T15:49:27;45.30;;;12.83;;
1416;SDS011;703;51.162;13.574;2023-04-03T15:51:53;35.80;;;13.43;;
1416;SDS011;703;51.162;13.574;2023-04-03T15:54:19;35.60;;;12.70;;
1416;SDS011;703;51.162;13.574;2023-04-03T15:56:52;35.87;;;13.23;;
1416;SDS011;703;51.162;13.574;2023-04-03T15:59:18;35.60;;;13.20;;
1416;SDS011;703;51.162;13.574;2023-04-03T16:01:43;35.10;;;12.10;;
1416;SDS011;703;51.162;13.574;2023-04-03T16:04:10;36.00;;;13.50;;
1416;SDS011;703;51.162;13.574;2023-04-03T16:06:35;36.83;;;12.93;;
1416;SDS011;703;51.162;13.574;2023-04-03T16:09:02;34.60;;;12.83;;
1416;SDS011;703;51.162;13.574;2023-04-03T16:11:28;35.17;;;12.97;;
1416;SDS011;703;51.162;13.574;2023-04-03T16:13:55;34.13;;;11.70;;
1416;SDS011;703;51.162;13.574;2023-04-03T16:16:20;35.50;;;13.57;;
1416;SDS011;703;51.162;13.574;2023-04-03T16:18:46;36.20;;;13.40;;
1416;SDS011;703;51.162;13.574;2023-04-03T16:21:12;34.27;;;12.50;;
1416;SDS011;703;51.162;13.574;2023-04-03T16:23:40;35.13;;;11.80;;
1416;SDS011;703;51.162;13.574;2023-04-03T16:26:06;34.87;;;12.77;;
1416;SDS011;703;51.162;13.574;2023-04-03T16:28:31;35.30;;;13.27;;
1416;SDS011;703;51.162;13.574;2023-04-03T16:30:57;34.50;;;11.60;;
1416;SDS011;703;51.162;13.574;2023-04-03T16:33:24;34.90;;;12.57;;
1416;SDS011;703;51.162;13.574;2023-04-03T16:35:50;35.07;;;11.50;;